sensor_id;sensor_type;location;lat;lon;timestamp;P1;durP1;ratioP1;P2;durP2;ratioP2
39776;SDS011;25453;48.162;14.510;2023-08-07T00:02:09;1.45;;;0.63;;
39776;SDS011;25453;48.162;14.510;2023-08-07T00:04:36;2.65;;;0.40;;
39776;SDS011;25453;48.162;14.510;2023-08-07T00:07:03;0.85;;;0.30;;
39776;SDS011;25453;48.162;14.510;2023-08-07T00:09:31;0.88;;;0.40;;
39776;SDS011;25453;48.162;14.510;2023-08-07T00:11:58;0.82;;;0.50;;
39776;SDS011;25453;48.162;14.510;2023-08-07T00:14:25;0.80;;;0.40;;
39776;SDS011;25453;48.162;14.510;2023-08-07T00:16:52;0.90;;;0.47;;
39776;SDS011;25453;48.162;14.510;2023-08-07T00:19:20;3.03;;;0.47;;
39776;SDS011;25453;48.162;14.510;2023-08-07T00:21:47;9.35;;;0.73;;
39776;SDS011;25453;48.162;14.510;2023-08-07T00:24:14;1.00;;;0.40;;
39776;SDS011;25453;48.162;14.510;2023-08-07T00:26:41;0.80;;;0.50;;
39776;SDS011;25453;48.162;14.510;2023-08-07T00:29:08;1.70;;;0.60;;
39776;SDS011;25453;48.162;14.510;2023-08-07T00:31:35;1.13;;;0.40;;
39776;SDS011;25453;48.162;14.510;2023-08-07T00:34:03;0.90;;;0.50;;
39776;SDS011;25453;48.162;14.510;2023-08-07T00:36:30;1.23;;;0.63;;
39776;SDS011;25453;48.162;14.510;2023-08-07T00:39:01;2.95;;;0.77;;
39776;SDS011;25453;48.162;14.510;2023-08-07T00:41:32;0.63;;;0.40;;
39776;SDS011;25453;48.162;14.510;2023-08-07T00:44:00;1.20;;;0.47;;
39776;SDS011;25453;48.162;14.510;2023-08-07T00:46:28;1.95;;;0.80;;
39776;SDS011;25453;48.162;14.510;2023-08-07T00:48:56;1.02;;;0.60;;
39776;SDS011;25453;48.162;14.510;2023-08-07T00:51:24;1.15;;;0.50;;
39776;SDS011;25453;48.162;14.510;2023-08-07T00:53:51;0.85;;;0.40;;
39776;SDS011;25453;48.162;14.510;2023-08-07T00:56:18;0.95;;;0.50;;
39776;SDS011;25453;48.162;14.510;2023-08-07T00:58:46;2.17;;;0.60;;
39776;SDS011;25453;48.162;14.510;2023-08-07T01:01:14;0.93;;;0.50;;
39776;SDS011;25453;48.162;14.510;2023-08-07T01:03:41;3.65;;;0.40;;
39776;SDS011;25453;48.162;14.510;2023-08-07T01:06:08;1.50;;;0.65;;
39776;SDS011;25453;48.162;14.510;2023-08-07T01:08:35;2.03;;;0.55;;
39776;SDS011;25453;48.162;14.510;2023-08-07T01:16:35;0.32;;;0.30;;
39776;SDS011;25453;48.162;14.510;2023-08-07T01:19:33;2.92;;;0.82;;
39776;SDS011;25453;48.162;14.510;2023-08-07T01:22:07;1.48;;;0.50;;
39776;SDS011;25453;48.162;14.510;2023-08-07T01:32:22;1.17;;;0.77;;
39776;SDS011;25453;48.162;14.510;2023-08-07T01:34:57;1.67;;;0.70;;
39776;SDS011;25453;48.162;14.510;2023-08-07T01:37:29;1.92;;;0.68;;
39776;SDS011;25453;48.162;14.510;2023-08-07T01:39:58;1.02;;;0.57;;
39776;SDS011;25453;48.162;14.510;2023-08-07T01:42:30;0.88;;;0.57;;
39776;SDS011;25453;48.162;14.510;2023-08-07T01:44:58;3.15;;;0.70;;
39776;SDS011;25453;48.162;14.510;2023-08-07T01:47:25;1.38;;;0.40;;
39776;SDS011;25453;48.162;14.510;2023-08-07T01:49:53;2.15;;;0.52;;
39776;SDS011;25453;48.162;14.510;2023-08-07T01:52:20;0.73;;;0.40;;
39776;SDS011;25453;48.162;14.510;2023-08-07T01:54:48;2.65;;;0.40;;
39776;SDS011;25453;48.162;14.510;2023-08-07T01:57:15;1.10;;;0.60;;
39776;SDS011;25453;48.162;14.510;2023-08-07T01:59:45;2.33;;;0.65;;
39776;SDS011;25453;48.162;14.510;2023-08-07T02:02:12;1.50;;;0.50;;
39776;SDS011;25453;48.162;14.510;2023-08-07T02:04:39;1.02;;;0.57;;
39776;SDS011;25453;48.162;14.510;2023-08-07T02:07:06;1.35;;;0.43;;
39776;SDS011;25453;48.162;14.510;2023-08-07T02:09:33;1.63;;;0.40;;
39776;SDS011;25453;48.162;14.510;2023-08-07T02:12:00;1.23;;;0.60;;
39776;SDS011;25453;48.162;14.510;2023-08-07T02:14:28;1.30;;;0.55;;
39776;SDS011;25453;48.162;14.510;2023-08-07T02:16:55;0.50;;;0.38;;
39776;SDS011;25453;48.162;14.510;2023-08-07T02:19:23;1.63;;;0.47;;
39776;SDS011;25453;48.162;14.510;2023-08-07T02:21:50;1.23;;;0.45;;
39776;SDS011;25453;48.162;14.510;2023-08-07T02:24:17;0.60;;;0.40;;
39776;SDS011;25453;48.162;14.510;2023-08-07T02:26:46;1.40;;;0.43;;
39776;SDS011;25453;48.162;14.510;2023-08-07T02:29:13;0.98;;;0.38;;
39776;SDS011;25453;48.162;14.510;2023-08-07T02:31:40;0.45;;;0.35;;
39776;SDS011;25453;48.162;14.510;2023-08-07T02:34:07;1.00;;;0.40;;
39776;SDS011;25453;48.162;14.510;2023-08-07T02:36:35;1.52;;;0.57;;
39776;SDS011;25453;48.162;14.510;2023-08-07T02:39:02;1.33;;;0.50;;
39776;SDS011;25453;48.162;14.510;2023-08-07T02:41:30;1.05;;;0.43;;
39776;SDS011;25453;48.162;14.510;2023-08-07T02:43:57;0.85;;;0.40;;
39776;SDS011;25453;48.162;14.510;2023-08-07T02:46:24;1.30;;;0.60;;
39776;SDS011;25453;48.162;14.510;2023-08-07T02:48:52;1.65;;;0.55;;
39776;SDS011;25453;48.162;14.510;2023-08-07T02:51:20;1.75;;;0.30;;
39776;SDS011;25453;48.162;14.510;2023-08-07T02:53:47;1.13;;;0.57;;
39776;SDS011;25453;48.162;14.510;2023-08-07T02:56:14;0.80;;;0.50;;
39776;SDS011;25453;48.162;14.510;2023-08-07T02:58:41;1.08;;;0.30;;
39776;SDS011;25453;48.162;14.510;2023-08-07T03:01:09;1.23;;;0.40;;
39776;SDS011;25453;48.162;14.510;2023-08-07T03:03:36;1.02;;;0.43;;
39776;SDS011;25453;48.162;14.510;2023-08-07T03:06:03;1.35;;;0.63;;
39776;SDS011;25453;48.162;14.510;2023-08-07T03:08:31;0.80;;;0.40;;
39776;SDS011;25453;48.162;14.510;2023-08-07T03:10:58;1.10;;;0.50;;
39776;SDS011;25453;48.162;14.510;2023-08-07T03:13:26;1.58;;;0.38;;
39776;SDS011;25453;48.162;14.510;2023-08-07T03:16:00;1.35;;;0.47;;
39776;SDS011;25453;48.162;14.510;2023-08-07T03:18:29;0.60;;;0.40;;
39776;SDS011;25453;48.162;14.510;2023-08-07T03:20:56;1.77;;;0.57;;
39776;SDS011;25453;48.162;14.510;2023-08-07T03:23:24;1.20;;;0.45;;
39776;SDS011;25453;48.162;14.510;2023-08-07T03:26:09;1.52;;;0.50;;
39776;SDS011;25453;48.162;14.510;2023-08-07T03:28:44;0.65;;;0.35;;
39776;SDS011;25453;48.162;14.510;2023-08-07T03:31:15;0.50;;;0.40;;
39776;SDS011;25453;48.162;14.510;2023-08-07T03:33:43;0.85;;;0.40;;
39776;SDS011;25453;48.162;14.510;2023-08-07T03:36:10;1.52;;;0.40;;
39776;SDS011;25453;48.162;14.510;2023-08-07T03:38:38;1.25;;;0.40;;
39776;SDS011;25453;48.162;14.510;2023-08-07T03:41:05;0.77;;;0.30;;
39776;SDS011;25453;48.162;14.510;2023-08-07T03:43:32;0.52;;;0.32;;
39776;SDS011;25453;48.162;14.510;2023-08-07T03:45:59;0.75;;;0.30;;
39776;SDS011;25453;48.162;14.510;2023-08-07T03:48:29;0.30;;;0.25;;
39776;SDS011;25453;48.162;14.510;2023-08-07T03:51:04;1.73;;;0.40;;
39776;SDS011;25453;48.162;14.510;2023-08-07T03:53:35;0.70;;;0.30;;
39776;SDS011;25453;48.162;14.510;2023-08-07T03:56:02;0.43;;;0.30;;
39776;SDS011;25453;48.162;14.510;2023-08-07T03:58:30;0.20;;;0.20;;
39776;SDS011;25453;48.162;14.510;2023-08-07T04:00:57;2.05;;;0.50;;
39776;SDS011;25453;48.162;14.510;2023-08-07T04:03:25;0.25;;;0.20;;
39776;SDS011;25453;48.162;14.510;2023-08-07T04:05:52;0.40;;;0.30;;
39776;SDS011;25453;48.162;14.510;2023-08-07T04:08:23;0.80;;;0.38;;
39776;SDS011;25453;48.162;14.510;2023-08-07T04:10:58;1.00;;;0.40;;
39776;SDS011;25453;48.162;14.510;2023-08-07T04:13:27;1.45;;;0.43;;
39776;SDS011;25453;48.162;14.510;2023-08-07T04:15:54;2.97;;;0.50;;
39776;SDS011;25453;48.162;14.510;2023-08-07T04:18:22;0.60;;;0.30;;
39776;SDS011;25453;48.162;14.510;2023-08-07T04:20:50;0.85;;;0.40;;
39776;SDS011;25453;48.162;14.510;2023-08-07T04:23:21;0.80;;;0.38;;
39776;SDS011;25453;48.162;14.510;2023-08-07T04:25:50;1.58;;;0.30;;
39776;SDS011;25453;48.162;14.510;2023-08-07T04:28:18;0.60;;;0.32;;
39776;SDS011;25453;48.162;14.510;2023-08-07T04:30:48;1.38;;;0.50;;
39776;SDS011;25453;48.162;14.510;2023-08-07T04:33:20;1.27;;;0.30;;
39776;SDS011;25453;48.162;14.510;2023-08-07T04:35:47;0.68;;;0.28;;
39776;SDS011;25453;48.162;14.510;2023-08-07T04:38:15;0.57;;;0.30;;
39776;SDS011;25453;48.162;14.510;2023-08-07T04:40:44;0.85;;;0.32;;
39776;SDS011;25453;48.162;14.510;2023-08-07T04:43:15;1.02;;;0.40;;
39776;SDS011;25453;48.162;14.510;2023-08-07T04:45:44;1.33;;;0.43;;
39776;SDS011;25453;48.162;14.510;2023-08-07T04:48:14;1.08;;;0.40;;
39776;SDS011;25453;48.162;14.510;2023-08-07T04:50:42;0.13;;;0.10;;
39776;SDS011;25453;48.162;14.510;2023-08-07T04:53:09;0.85;;;0.40;;
39776;SDS011;25453;48.162;14.510;2023-08-07T04:55:36;0.32;;;0.30;;
39776;SDS011;25453;48.162;14.510;2023-08-07T04:58:04;0.30;;;0.28;;
39776;SDS011;25453;48.162;14.510;2023-08-07T05:00:32;1.40;;;0.30;;
39776;SDS011;25453;48.162;14.510;2023-08-07T05:02:59;1.90;;;0.95;;
39776;SDS011;25453;48.162;14.510;2023-08-07T05:05:28;0.55;;;0.30;;
39776;SDS011;25453;48.162;14.510;2023-08-07T05:07:55;0.88;;;0.30;;
39776;SDS011;25453;48.162;14.510;2023-08-07T05:10:24;0.68;;;0.38;;
39776;SDS011;25453;48.162;14.510;2023-08-07T05:12:51;0.65;;;0.30;;
39776;SDS011;25453;48.162;14.510;2023-08-07T05:15:22;1.38;;;0.43;;
39776;SDS011;25453;48.162;14.510;2023-08-07T05:17:51;0.47;;;0.32;;
39776;SDS011;25453;48.162;14.510;2023-08-07T05:20:19;0.63;;;0.43;;
39776;SDS011;25453;48.162;14.510;2023-08-07T05:22:46;0.98;;;0.47;;
39776;SDS011;25453;48.162;14.510;2023-08-07T05:25:14;0.57;;;0.30;;
39776;SDS011;25453;48.162;14.510;2023-08-07T05:27:43;0.63;;;0.32;;
39776;SDS011;25453;48.162;14.510;2023-08-07T05:30:14;1.52;;;0.30;;
39776;SDS011;25453;48.162;14.510;2023-08-07T05:32:41;1.73;;;0.50;;
39776;SDS011;25453;48.162;14.510;2023-08-07T05:35:09;1.42;;;0.50;;
39776;SDS011;25453;48.162;14.510;2023-08-07T05:37:37;1.27;;;0.70;;
39776;SDS011;25453;48.162;14.510;2023-08-07T05:40:04;1.73;;;0.50;;
39776;SDS011;25453;48.162;14.510;2023-08-07T05:42:32;1.30;;;0.63;;
39776;SDS011;25453;48.162;14.510;2023-08-07T05:44:59;1.52;;;0.60;;
39776;SDS011;25453;48.162;14.510;2023-08-07T05:47:26;0.95;;;0.50;;
39776;SDS011;25453;48.162;14.510;2023-08-07T05:49:53;1.27;;;0.50;;
39776;SDS011;25453;48.162;14.510;2023-08-07T05:52:21;1.05;;;0.50;;
39776;SDS011;25453;48.162;14.510;2023-08-07T05:54:48;1.17;;;0.60;;
39776;SDS011;25453;48.162;14.510;2023-08-07T05:57:15;2.53;;;0.68;;
39776;SDS011;25453;48.162;14.510;2023-08-07T05:59:42;4.60;;;1.48;;
39776;SDS011;25453;48.162;14.510;2023-08-07T06:02:09;1.65;;;0.50;;
39776;SDS011;25453;48.162;14.510;2023-08-07T06:04:38;1.90;;;0.80;;
39776;SDS011;25453;48.162;14.510;2023-08-07T06:07:05;1.30;;;0.40;;
39776;SDS011;25453;48.162;14.510;2023-08-07T06:09:33;1.88;;;0.50;;
39776;SDS011;25453;48.162;14.510;2023-08-07T06:12:01;2.65;;;0.65;;
39776;SDS011;25453;48.162;14.510;2023-08-07T06:14:29;1.98;;;0.57;;
39776;SDS011;25453;48.162;14.510;2023-08-07T06:16:56;0.95;;;0.55;;
39776;SDS011;25453;48.162;14.510;2023-08-07T06:19:24;0.97;;;0.37;;
39776;SDS011;25453;48.162;14.510;2023-08-07T06:21:57;2.45;;;0.80;;
39776;SDS011;25453;48.162;14.510;2023-08-07T06:24:25;4.57;;;0.70;;
39776;SDS011;25453;48.162;14.510;2023-08-07T06:26:53;2.38;;;0.70;;
39776;SDS011;25453;48.162;14.510;2023-08-07T06:29:20;1.83;;;0.75;;
39776;SDS011;25453;48.162;14.510;2023-08-07T06:31:47;1.75;;;0.70;;
39776;SDS011;25453;48.162;14.510;2023-08-07T06:34:15;2.10;;;0.70;;
39776;SDS011;25453;48.162;14.510;2023-08-07T06:36:42;2.80;;;0.60;;
39776;SDS011;25453;48.162;14.510;2023-08-07T06:39:10;1.33;;;0.57;;
39776;SDS011;25453;48.162;14.510;2023-08-07T06:41:37;4.65;;;0.80;;
39776;SDS011;25453;48.162;14.510;2023-08-07T06:44:05;1.55;;;0.60;;
39776;SDS011;25453;48.162;14.510;2023-08-07T06:46:33;1.20;;;0.70;;
39776;SDS011;25453;48.162;14.510;2023-08-07T06:49:00;1.65;;;0.52;;
39776;SDS011;25453;48.162;14.510;2023-08-07T06:51:27;1.65;;;0.50;;
39776;SDS011;25453;48.162;14.510;2023-08-07T06:53:54;1.00;;;0.52;;
39776;SDS011;25453;48.162;14.510;2023-08-07T06:56:22;0.55;;;0.47;;
39776;SDS011;25453;48.162;14.510;2023-08-07T06:58:49;3.90;;;0.60;;
39776;SDS011;25453;48.162;14.510;2023-08-07T07:01:16;1.35;;;0.60;;
39776;SDS011;25453;48.162;14.510;2023-08-07T07:03:44;0.60;;;0.35;;
39776;SDS011;25453;48.162;14.510;2023-08-07T07:06:13;1.45;;;0.40;;
39776;SDS011;25453;48.162;14.510;2023-08-07T07:08:40;1.33;;;0.60;;
39776;SDS011;25453;48.162;14.510;2023-08-07T07:11:08;3.03;;;0.40;;
39776;SDS011;25453;48.162;14.510;2023-08-07T07:13:36;0.40;;;0.20;;
39776;SDS011;25453;48.162;14.510;2023-08-07T07:16:03;0.85;;;0.40;;
39776;SDS011;25453;48.162;14.510;2023-08-07T07:18:30;2.42;;;0.40;;
39776;SDS011;25453;48.162;14.510;2023-08-07T07:20:57;0.60;;;0.45;;
39776;SDS011;25453;48.162;14.510;2023-08-07T07:23:27;0.60;;;0.40;;
39776;SDS011;25453;48.162;14.510;2023-08-07T07:25:54;2.40;;;0.65;;
39776;SDS011;25453;48.162;14.510;2023-08-07T07:28:21;1.05;;;0.50;;
39776;SDS011;25453;48.162;14.510;2023-08-07T07:30:49;2.08;;;0.70;;
39776;SDS011;25453;48.162;14.510;2023-08-07T07:33:16;1.75;;;0.85;;
39776;SDS011;25453;48.162;14.510;2023-08-07T07:35:44;1.45;;;0.70;;
39776;SDS011;25453;48.162;14.510;2023-08-07T07:38:11;1.02;;;0.60;;
39776;SDS011;25453;48.162;14.510;2023-08-07T07:40:38;2.03;;;0.68;;
39776;SDS011;25453;48.162;14.510;2023-08-07T07:43:05;4.20;;;0.60;;
39776;SDS011;25453;48.162;14.510;2023-08-07T07:45:33;1.80;;;0.60;;
39776;SDS011;25453;48.162;14.510;2023-08-07T07:48:02;3.47;;;0.93;;
39776;SDS011;25453;48.162;14.510;2023-08-07T07:50:30;1.50;;;0.88;;
39776;SDS011;25453;48.162;14.510;2023-08-07T07:52:57;3.13;;;0.80;;
39776;SDS011;25453;48.162;14.510;2023-08-07T07:55:24;2.92;;;0.93;;
39776;SDS011;25453;48.162;14.510;2023-08-07T07:57:53;3.55;;;0.80;;
39776;SDS011;25453;48.162;14.510;2023-08-07T08:00:22;2.10;;;0.70;;
39776;SDS011;25453;48.162;14.510;2023-08-07T08:02:53;1.90;;;0.90;;
39776;SDS011;25453;48.162;14.510;2023-08-07T08:05:20;1.88;;;0.73;;
39776;SDS011;25453;48.162;14.510;2023-08-07T08:07:48;2.22;;;0.73;;
39776;SDS011;25453;48.162;14.510;2023-08-07T08:10:15;1.83;;;0.70;;
39776;SDS011;25453;48.162;14.510;2023-08-07T08:12:43;3.72;;;1.00;;
39776;SDS011;25453;48.162;14.510;2023-08-07T08:15:10;2.47;;;0.90;;
39776;SDS011;25453;48.162;14.510;2023-08-07T08:17:37;1.65;;;0.75;;
39776;SDS011;25453;48.162;14.510;2023-08-07T08:20:06;3.30;;;1.10;;
39776;SDS011;25453;48.162;14.510;2023-08-07T08:22:34;2.22;;;0.80;;
39776;SDS011;25453;48.162;14.510;2023-08-07T08:25:02;2.00;;;0.80;;
39776;SDS011;25453;48.162;14.510;2023-08-07T08:27:31;1.42;;;0.70;;
39776;SDS011;25453;48.162;14.510;2023-08-07T08:29:58;1.63;;;0.82;;
39776;SDS011;25453;48.162;14.510;2023-08-07T08:32:25;1.42;;;0.93;;
39776;SDS011;25453;48.162;14.510;2023-08-07T08:34:53;2.10;;;0.95;;
39776;SDS011;25453;48.162;14.510;2023-08-07T08:37:20;1.13;;;0.60;;
39776;SDS011;25453;48.162;14.510;2023-08-07T08:39:47;2.75;;;0.90;;
39776;SDS011;25453;48.162;14.510;2023-08-07T08:42:15;1.88;;;1.00;;
39776;SDS011;25453;48.162;14.510;2023-08-07T08:44:56;3.22;;;1.20;;
39776;SDS011;25453;48.162;14.510;2023-08-07T08:47:26;4.22;;;0.93;;
39776;SDS011;25453;48.162;14.510;2023-08-07T08:49:54;3.38;;;1.00;;
39776;SDS011;25453;48.162;14.510;2023-08-07T08:52:28;1.93;;;1.07;;
39776;SDS011;25453;48.162;14.510;2023-08-07T08:54:57;2.80;;;1.00;;
39776;SDS011;25453;48.162;14.510;2023-08-07T08:57:25;2.20;;;0.90;;
39776;SDS011;25453;48.162;14.510;2023-08-07T08:59:53;2.10;;;0.80;;
39776;SDS011;25453;48.162;14.510;2023-08-07T09:02:20;3.13;;;1.30;;
39776;SDS011;25453;48.162;14.510;2023-08-07T09:04:47;1.45;;;0.82;;
39776;SDS011;25453;48.162;14.510;2023-08-07T09:07:15;3.33;;;1.10;;
39776;SDS011;25453;48.162;14.510;2023-08-07T09:09:43;1.70;;;1.05;;
39776;SDS011;25453;48.162;14.510;2023-08-07T09:12:14;3.90;;;1.00;;
39776;SDS011;25453;48.162;14.510;2023-08-07T09:14:49;3.70;;;1.30;;
39776;SDS011;25453;48.162;14.510;2023-08-07T09:17:24;3.55;;;1.23;;
39776;SDS011;25453;48.162;14.510;2023-08-07T09:19:55;1.83;;;0.88;;
39776;SDS011;25453;48.162;14.510;2023-08-07T09:22:23;2.30;;;1.00;;
39776;SDS011;25453;48.162;14.510;2023-08-07T09:24:50;3.35;;;1.30;;
39776;SDS011;25453;48.162;14.510;2023-08-07T09:27:17;3.35;;;1.33;;
39776;SDS011;25453;48.162;14.510;2023-08-07T09:29:46;2.65;;;0.80;;
39776;SDS011;25453;48.162;14.510;2023-08-07T09:32:13;1.52;;;0.85;;
39776;SDS011;25453;48.162;14.510;2023-08-07T09:34:41;6.78;;;1.27;;
39776;SDS011;25453;48.162;14.510;2023-08-07T09:37:09;2.03;;;1.23;;
39776;SDS011;25453;48.162;14.510;2023-08-07T09:39:36;2.03;;;1.00;;
39776;SDS011;25453;48.162;14.510;2023-08-07T09:42:04;4.38;;;1.23;;
39776;SDS011;25453;48.162;14.510;2023-08-07T09:44:35;2.85;;;1.25;;
39776;SDS011;25453;48.162;14.510;2023-08-07T09:47:12;2.15;;;0.95;;
39776;SDS011;25453;48.162;14.510;2023-08-07T09:49:40;1.65;;;0.77;;
39776;SDS011;25453;48.162;14.510;2023-08-07T09:52:09;2.42;;;1.05;;
39776;SDS011;25453;48.162;14.510;2023-08-07T09:54:39;1.88;;;1.10;;
39776;SDS011;25453;48.162;14.510;2023-08-07T09:57:09;2.58;;;1.10;;
39776;SDS011;25453;48.162;14.510;2023-08-07T09:59:36;3.20;;;1.23;;
39776;SDS011;25453;48.162;14.510;2023-08-07T10:02:04;2.00;;;0.95;;
39776;SDS011;25453;48.162;14.510;2023-08-07T10:04:31;2.08;;;1.00;;
39776;SDS011;25453;48.162;14.510;2023-08-07T10:06:59;1.83;;;0.88;;
39776;SDS011;25453;48.162;14.510;2023-08-07T10:09:28;5.38;;;1.17;;
39776;SDS011;25453;48.162;14.510;2023-08-07T10:11:56;4.07;;;1.13;;
39776;SDS011;25453;48.162;14.510;2023-08-07T10:14:25;1.95;;;1.00;;
39776;SDS011;25453;48.162;14.510;2023-08-07T10:16:53;1.08;;;0.80;;
39776;SDS011;25453;48.162;14.510;2023-08-07T10:19:22;1.52;;;0.80;;
39776;SDS011;25453;48.162;14.510;2023-08-07T10:21:49;2.22;;;1.00;;
39776;SDS011;25453;48.162;14.510;2023-08-07T10:24:19;3.40;;;1.23;;
39776;SDS011;25453;48.162;14.510;2023-08-07T10:26:47;1.77;;;0.88;;
39776;SDS011;25453;48.162;14.510;2023-08-07T10:29:17;2.60;;;0.95;;
39776;SDS011;25453;48.162;14.510;2023-08-07T10:31:47;2.10;;;1.00;;
39776;SDS011;25453;48.162;14.510;2023-08-07T10:34:16;2.03;;;1.02;;
39776;SDS011;25453;48.162;14.510;2023-08-07T10:36:43;2.65;;;1.27;;
39776;SDS011;25453;48.162;14.510;2023-08-07T10:39:11;2.13;;;1.00;;
39776;SDS011;25453;48.162;14.510;2023-08-07T10:41:42;2.40;;;1.08;;
39776;SDS011;25453;48.162;14.510;2023-08-07T10:44:25;2.58;;;1.00;;
39776;SDS011;25453;48.162;14.510;2023-08-07T10:46:57;3.33;;;1.55;;
39776;SDS011;25453;48.162;14.510;2023-08-07T10:52:13;2.65;;;0.90;;
39776;SDS011;25453;48.162;14.510;2023-08-07T10:54:45;2.38;;;0.80;;
39776;SDS011;25453;48.162;14.510;2023-08-07T10:57:15;1.48;;;0.88;;
39776;SDS011;25453;48.162;14.510;2023-08-07T10:59:50;3.70;;;1.30;;
39776;SDS011;25453;48.162;14.510;2023-08-07T11:02:30;3.05;;;0.95;;
39776;SDS011;25453;48.162;14.510;2023-08-07T11:04:59;1.98;;;1.05;;
39776;SDS011;25453;48.162;14.510;2023-08-07T11:07:28;1.80;;;1.02;;
39776;SDS011;25453;48.162;14.510;2023-08-07T11:09:56;2.15;;;0.90;;
39776;SDS011;25453;48.162;14.510;2023-08-07T11:12:29;1.60;;;1.05;;
39776;SDS011;25453;48.162;14.510;2023-08-07T11:14:56;1.90;;;0.90;;
39776;SDS011;25453;48.162;14.510;2023-08-07T11:17:27;1.83;;;0.80;;
39776;SDS011;25453;48.162;14.510;2023-08-07T11:19:55;2.80;;;1.10;;
39776;SDS011;25453;48.162;14.510;2023-08-07T11:22:23;2.13;;;0.82;;
39776;SDS011;25453;48.162;14.510;2023-08-07T11:24:50;2.25;;;0.90;;
39776;SDS011;25453;48.162;14.510;2023-08-07T11:27:20;2.58;;;0.98;;
39776;SDS011;25453;48.162;14.510;2023-08-07T11:29:48;2.08;;;0.93;;
39776;SDS011;25453;48.162;14.510;2023-08-07T11:32:16;3.20;;;0.90;;
39776;SDS011;25453;48.162;14.510;2023-08-07T11:34:49;1.50;;;0.60;;
39776;SDS011;25453;48.162;14.510;2023-08-07T11:37:17;2.75;;;0.80;;
39776;SDS011;25453;48.162;14.510;2023-08-07T11:39:45;1.90;;;0.90;;
39776;SDS011;25453;48.162;14.510;2023-08-07T11:42:13;2.05;;;1.05;;
39776;SDS011;25453;48.162;14.510;2023-08-07T11:44:40;2.47;;;1.08;;
39776;SDS011;25453;48.162;14.510;2023-08-07T11:47:08;2.65;;;1.05;;
39776;SDS011;25453;48.162;14.510;2023-08-07T11:49:36;1.60;;;0.80;;
39776;SDS011;25453;48.162;14.510;2023-08-07T11:52:04;1.60;;;0.80;;
39776;SDS011;25453;48.162;14.510;2023-08-07T11:54:32;2.33;;;0.98;;
39776;SDS011;25453;48.162;14.510;2023-08-07T11:56:59;2.28;;;1.10;;
39776;SDS011;25453;48.162;14.510;2023-08-07T11:59:26;2.42;;;0.85;;
39776;SDS011;25453;48.162;14.510;2023-08-07T12:01:53;2.75;;;0.93;;
39776;SDS011;25453;48.162;14.510;2023-08-07T12:04:21;3.22;;;1.30;;
39776;SDS011;25453;48.162;14.510;2023-08-07T12:06:55;4.80;;;1.15;;
39776;SDS011;25453;48.162;14.510;2023-08-07T12:09:25;1.88;;;0.80;;
39776;SDS011;25453;48.162;14.510;2023-08-07T12:11:59;1.45;;;0.98;;
39776;SDS011;25453;48.162;14.510;2023-08-07T12:14:29;2.40;;;0.95;;
39776;SDS011;25453;48.162;14.510;2023-08-07T12:16:57;1.90;;;1.17;;
39776;SDS011;25453;48.162;14.510;2023-08-07T12:19:25;2.15;;;0.95;;
39776;SDS011;25453;48.162;14.510;2023-08-07T12:22:05;3.35;;;0.85;;
39776;SDS011;25453;48.162;14.510;2023-08-07T12:24:35;1.73;;;0.70;;
39776;SDS011;25453;48.162;14.510;2023-08-07T12:27:04;1.77;;;0.90;;
39776;SDS011;25453;48.162;14.510;2023-08-07T12:29:31;1.70;;;0.70;;
39776;SDS011;25453;48.162;14.510;2023-08-07T12:31:59;2.35;;;0.90;;
39776;SDS011;25453;48.162;14.510;2023-08-07T12:34:28;1.92;;;1.02;;
39776;SDS011;25453;48.162;14.510;2023-08-07T12:36:58;2.35;;;0.90;;
39776;SDS011;25453;48.162;14.510;2023-08-07T12:39:25;1.33;;;0.90;;
39776;SDS011;25453;48.162;14.510;2023-08-07T12:41:55;1.33;;;0.75;;
39776;SDS011;25453;48.162;14.510;2023-08-07T12:44:27;1.23;;;0.80;;
39776;SDS011;25453;48.162;14.510;2023-08-07T12:46:54;3.35;;;1.25;;
39776;SDS011;25453;48.162;14.510;2023-08-07T12:49:23;1.80;;;0.88;;
39776;SDS011;25453;48.162;14.510;2023-08-07T12:51:51;1.92;;;0.90;;
39776;SDS011;25453;48.162;14.510;2023-08-07T12:54:19;2.53;;;1.20;;
39776;SDS011;25453;48.162;14.510;2023-08-07T12:56:46;3.25;;;0.80;;
39776;SDS011;25453;48.162;14.510;2023-08-07T12:59:13;1.85;;;0.75;;
39776;SDS011;25453;48.162;14.510;2023-08-07T13:01:41;1.48;;;0.80;;
39776;SDS011;25453;48.162;14.510;2023-08-07T13:04:13;2.40;;;0.63;;
39776;SDS011;25453;48.162;14.510;2023-08-07T13:06:41;2.03;;;0.98;;
39776;SDS011;25453;48.162;14.510;2023-08-07T13:09:09;1.65;;;0.77;;
39776;SDS011;25453;48.162;14.510;2023-08-07T13:11:36;1.63;;;0.80;;
39776;SDS011;25453;48.162;14.510;2023-08-07T13:14:03;1.20;;;0.80;;
39776;SDS011;25453;48.162;14.510;2023-08-07T13:16:30;2.17;;;0.95;;
39776;SDS011;25453;48.162;14.510;2023-08-07T13:18:57;1.23;;;0.52;;
39776;SDS011;25453;48.162;14.510;2023-08-07T13:21:24;1.63;;;0.80;;
39776;SDS011;25453;48.162;14.510;2023-08-07T13:23:52;1.63;;;0.98;;
39776;SDS011;25453;48.162;14.510;2023-08-07T13:26:19;1.73;;;0.98;;
39776;SDS011;25453;48.162;14.510;2023-08-07T13:28:46;1.83;;;0.90;;
39776;SDS011;25453;48.162;14.510;2023-08-07T13:31:13;1.75;;;0.80;;
39776;SDS011;25453;48.162;14.510;2023-08-07T13:33:40;1.10;;;0.77;;
39776;SDS011;25453;48.162;14.510;2023-08-07T13:36:07;1.25;;;0.70;;
39776;SDS011;25453;48.162;14.510;2023-08-07T13:38:34;2.45;;;0.80;;
39776;SDS011;25453;48.162;14.510;2023-08-07T13:41:02;1.67;;;0.60;;
39776;SDS011;25453;48.162;14.510;2023-08-07T13:43:29;1.40;;;0.77;;
39776;SDS011;25453;48.162;14.510;2023-08-07T13:45:57;2.63;;;1.00;;
39776;SDS011;25453;48.162;14.510;2023-08-07T13:48:24;1.75;;;0.90;;
39776;SDS011;25453;48.162;14.510;2023-08-07T13:50:54;1.98;;;1.00;;
39776;SDS011;25453;48.162;14.510;2023-08-07T13:53:21;2.55;;;0.98;;
39776;SDS011;25453;48.162;14.510;2023-08-07T13:55:50;2.55;;;1.15;;
39776;SDS011;25453;48.162;14.510;2023-08-07T13:58:17;2.63;;;1.08;;
39776;SDS011;25453;48.162;14.510;2023-08-07T14:00:44;2.00;;;1.05;;
39776;SDS011;25453;48.162;14.510;2023-08-07T14:03:11;2.20;;;0.90;;
39776;SDS011;25453;48.162;14.510;2023-08-07T14:05:40;1.50;;;0.80;;
39776;SDS011;25453;48.162;14.510;2023-08-07T14:08:07;1.55;;;0.82;;
39776;SDS011;25453;48.162;14.510;2023-08-07T14:10:37;2.28;;;1.02;;
39776;SDS011;25453;48.162;14.510;2023-08-07T14:13:08;1.20;;;0.73;;
39776;SDS011;25453;48.162;14.510;2023-08-07T14:15:36;2.20;;;0.82;;
39776;SDS011;25453;48.162;14.510;2023-08-07T14:18:04;1.33;;;0.88;;
39776;SDS011;25453;48.162;14.510;2023-08-07T14:20:31;1.75;;;0.73;;
39776;SDS011;25453;48.162;14.510;2023-08-07T14:23:07;0.95;;;0.70;;
39776;SDS011;25453;48.162;14.510;2023-08-07T14:25:47;1.95;;;0.90;;
39776;SDS011;25453;48.162;14.510;2023-08-07T14:28:17;1.40;;;0.85;;
39776;SDS011;25453;48.162;14.510;2023-08-07T14:30:45;2.90;;;0.95;;
39776;SDS011;25453;48.162;14.510;2023-08-07T14:33:12;2.85;;;1.00;;
39776;SDS011;25453;48.162;14.510;2023-08-07T14:35:39;1.80;;;0.80;;
39776;SDS011;25453;48.162;14.510;2023-08-07T14:38:06;1.67;;;0.80;;
39776;SDS011;25453;48.162;14.510;2023-08-07T14:40:33;3.58;;;0.90;;
39776;SDS011;25453;48.162;14.510;2023-08-07T14:43:04;1.45;;;0.82;;
39776;SDS011;25453;48.162;14.510;2023-08-07T14:45:31;2.35;;;1.20;;
39776;SDS011;25453;48.162;14.510;2023-08-07T14:47:58;2.08;;;1.10;;
39776;SDS011;25453;48.162;14.510;2023-08-07T14:50:26;2.70;;;1.27;;
39776;SDS011;25453;48.162;14.510;2023-08-07T14:52:53;1.75;;;1.00;;
39776;SDS011;25453;48.162;14.510;2023-08-07T14:55:20;2.20;;;1.08;;
39776;SDS011;25453;48.162;14.510;2023-08-07T14:57:47;2.03;;;0.95;;